createdAt,value
2023-07-09T00:00:18.644Z,5.05
2023-07-09T00:02:45.406Z,5.60
2023-07-09T00:05:16.834Z,5.43
2023-07-09T00:07:44.785Z,5.13
2023-07-09T00:10:21.610Z,5.65
2023-07-09T00:12:48.568Z,5.15
2023-07-09T00:15:19.239Z,5.60
2023-07-09T00:17:46.179Z,5.53
2023-07-09T00:20:17.359Z,5.65
2023-07-09T00:22:49.066Z,5.43
2023-07-09T00:25:17.971Z,5.45
2023-07-09T00:27:49.144Z,5.60
2023-07-09T00:30:21.378Z,5.57
2023-07-09T00:35:17.291Z,5.50
2023-07-09T00:37:44.744Z,5.45
2023-07-09T00:40:16.085Z,5.05
2023-07-09T00:42:45.824Z,5.10
2023-07-09T00:45:20.272Z,5.03
2023-07-09T00:47:51.438Z,5.00
2023-07-09T00:50:34.820Z,5.20
2023-07-09T00:53:08.484Z,5.25
2023-07-09T00:55:38.809Z,4.88
2023-07-09T00:58:07.577Z,5.22
2023-07-09T01:00:39.052Z,4.93
2023-07-09T01:03:06.878Z,4.57
2023-07-09T01:05:33.422Z,5.00
2023-07-09T01:08:00.629Z,5.32
2023-07-09T01:10:27.074Z,4.80
2023-07-09T01:12:53.614Z,5.00
2023-07-09T01:15:20.152Z,4.72
2023-07-09T01:17:46.737Z,4.72
2023-07-09T01:20:22.232Z,4.50
2023-07-09T01:22:51.187Z,5.00
2023-07-09T01:25:17.710Z,4.90
2023-07-09T01:27:46.961Z,4.88
2023-07-09T01:30:24.986Z,4.80
2023-07-09T01:32:52.507Z,5.18
2023-07-09T01:35:22.472Z,5.53
2023-07-09T01:37:49.894Z,4.85
2023-07-09T01:40:30.131Z,5.13
2023-07-09T01:43:00.913Z,5.32
2023-07-09T01:45:27.864Z,4.95
2023-07-09T01:47:54.966Z,5.22
2023-07-09T01:50:21.541Z,5.03
2023-07-09T01:52:50.769Z,5.30
2023-07-09T01:55:18.007Z,5.78
2023-07-09T01:57:44.626Z,5.45
2023-07-09T02:00:16.321Z,6.20
2023-07-09T02:02:44.740Z,6.80
2023-07-09T02:05:13.860Z,6.70
2023-07-09T02:07:41.001Z,6.25
2023-07-09T02:10:08.232Z,6.25
2023-07-09T02:12:35.066Z,6.32
2023-07-09T02:15:01.491Z,6.28
2023-07-09T02:17:27.963Z,6.55
2023-07-09T02:19:54.517Z,6.38
2023-07-09T02:22:20.968Z,6.45
2023-07-09T02:24:47.409Z,6.40
2023-07-09T02:27:18.857Z,6.38
2023-07-09T02:29:45.360Z,6.13
2023-07-09T02:32:21.520Z,5.65
2023-07-09T02:34:54.083Z,6.10
2023-07-09T02:37:22.907Z,5.88
2023-07-09T02:39:49.870Z,5.90
2023-07-09T02:42:18.019Z,5.97
2023-07-09T02:44:44.905Z,6.45
2023-07-09T02:47:11.969Z,5.65
2023-07-09T02:49:38.965Z,6.00
2023-07-09T02:52:05.935Z,5.70
2023-07-09T02:54:32.880Z,6.13
2023-07-09T02:56:59.601Z,6.03
2023-07-09T02:59:27.827Z,5.90
2023-07-09T03:01:54.312Z,5.38
2023-07-09T03:04:21.427Z,5.82
2023-07-09T03:06:48.008Z,5.55
2023-07-09T03:09:14.497Z,5.88
2023-07-09T03:11:41.018Z,5.70
2023-07-09T03:14:07.525Z,6.88
2023-07-09T03:16:35.295Z,6.45
2023-07-09T03:19:02.595Z,6.72
2023-07-09T03:21:29.150Z,6.80
2023-07-09T03:23:55.929Z,6.60
2023-07-09T03:26:22.900Z,6.38
2023-07-09T03:28:49.452Z,6.35
2023-07-09T03:31:15.936Z,6.55
2023-07-09T03:33:42.408Z,6.10
2023-07-09T03:36:08.908Z,6.32
2023-07-09T03:38:35.526Z,6.07
2023-07-09T03:41:01.971Z,6.05
2023-07-09T03:43:28.438Z,6.55
2023-07-09T03:45:54.961Z,7.32
2023-07-09T03:48:21.871Z,6.85
2023-07-09T03:50:49.020Z,6.65
2023-07-09T03:53:16.277Z,6.60
2023-07-09T03:55:42.979Z,6.35
2023-07-09T03:58:10.146Z,6.80
2023-07-09T04:00:36.681Z,6.20
2023-07-09T04:03:03.205Z,6.70
2023-07-09T04:05:29.700Z,6.85
2023-07-09T04:07:56.141Z,6.65
2023-07-09T04:10:22.682Z,6.63
2023-07-09T04:12:49.149Z,6.65
2023-07-09T04:15:15.589Z,6.97
2023-07-09T04:17:42.391Z,6.40
2023-07-09T04:20:10.696Z,7.18
2023-07-09T04:22:37.626Z,7.25
2023-07-09T04:25:05.860Z,6.80
2023-07-09T04:27:32.463Z,6.90
2023-07-09T04:29:58.976Z,6.68
2023-07-09T04:32:25.410Z,6.20
2023-07-09T04:34:51.973Z,7.03
2023-07-09T04:37:18.444Z,6.25
2023-07-09T04:39:45.065Z,7.00
2023-07-09T04:42:13.365Z,6.40
2023-07-09T04:44:40.084Z,6.70
2023-07-09T04:47:06.629Z,6.55
2023-07-09T04:49:33.648Z,6.28
2023-07-09T04:52:00.456Z,7.00
2023-07-09T04:54:27.492Z,6.32
2023-07-09T04:56:54.312Z,7.00
2023-07-09T04:59:21.044Z,6.80
2023-07-09T05:01:47.946Z,6.43
2023-07-09T05:04:14.463Z,6.68
2023-07-09T05:06:41.055Z,6.88
2023-07-09T05:09:07.579Z,6.68
2023-07-09T05:11:35.953Z,7.10
2023-07-09T05:14:02.451Z,7.05
2023-07-09T05:16:28.925Z,7.18
2023-07-09T05:18:55.339Z,6.68
2023-07-09T05:21:21.768Z,6.78
2023-07-09T05:23:48.232Z,6.65
2023-07-09T05:26:14.731Z,6.57
2023-07-09T05:28:41.145Z,6.47
2023-07-09T05:31:07.694Z,5.93
2023-07-09T05:33:34.486Z,5.45
2023-07-09T05:36:01.038Z,6.00
2023-07-09T05:38:27.668Z,5.90
2023-07-09T05:41:04.829Z,5.43
2023-07-09T05:43:31.925Z,5.80
2023-07-09T05:45:58.388Z,6.32
2023-07-09T05:48:24.821Z,5.90
2023-07-09T05:50:56.078Z,5.65
2023-07-09T05:53:23.399Z,6.05
2023-07-09T05:55:50.207Z,4.97
2023-07-09T05:58:16.633Z,5.57
2023-07-09T06:00:43.739Z,5.65
2023-07-09T06:03:10.518Z,5.45
2023-07-09T06:05:37.438Z,5.78
2023-07-09T06:08:04.977Z,5.63
2023-07-09T06:10:31.547Z,5.28
2023-07-09T06:12:59.360Z,5.57
2023-07-09T06:15:26.483Z,5.63
2023-07-09T06:17:53.029Z,6.07
2023-07-09T06:20:19.488Z,5.35
2023-07-09T06:22:45.955Z,5.60
2023-07-09T06:25:13.246Z,5.38
2023-07-09T06:27:39.659Z,5.60
2023-07-09T06:30:06.851Z,5.53
2023-07-09T06:32:33.386Z,5.88
2023-07-09T06:34:59.846Z,5.53
2023-07-09T06:37:26.305Z,5.82
2023-07-09T06:39:52.896Z,5.60
2023-07-09T06:42:19.328Z,5.88
2023-07-09T06:44:45.842Z,5.60
2023-07-09T06:47:12.487Z,5.68
2023-07-09T06:49:39.096Z,4.80
2023-07-09T06:52:05.904Z,5.55
2023-07-09T06:54:32.371Z,5.65
2023-07-09T06:56:58.874Z,5.20
2023-07-09T06:59:25.587Z,5.85
2023-07-09T07:01:52.061Z,5.53
2023-07-09T07:04:18.550Z,5.32
2023-07-09T07:06:46.136Z,5.30
2023-07-09T07:09:13.991Z,4.90
2023-07-09T07:11:40.419Z,5.68
2023-07-09T07:14:06.904Z,5.10
2023-07-09T07:16:33.437Z,5.30
2023-07-09T07:18:59.955Z,5.38
2023-07-09T07:21:26.385Z,5.40
2023-07-09T07:23:53.919Z,5.07
2023-07-09T07:26:20.522Z,5.32
2023-07-09T07:28:47.016Z,5.60
2023-07-09T07:31:13.450Z,5.28
2023-07-09T07:33:41.144Z,5.65
2023-07-09T07:38:37.817Z,5.25
2023-07-09T07:41:04.286Z,5.13
2023-07-09T07:43:30.694Z,4.95
2023-07-09T07:45:57.340Z,5.13
2023-07-09T07:48:23.783Z,4.95
2023-07-09T07:50:50.526Z,5.35
2023-07-09T07:53:17.186Z,4.82
2023-07-09T07:55:43.952Z,5.35
2023-07-09T07:58:13.092Z,5.03
2023-07-09T08:00:41.352Z,4.72
2023-07-09T08:03:08.138Z,4.65
2023-07-09T08:05:34.821Z,4.80
2023-07-09T08:08:01.288Z,5.00
2023-07-09T08:10:27.722Z,5.05
2023-07-09T08:12:57.715Z,5.25
2023-07-09T08:15:27.125Z,5.10
2023-07-09T08:17:53.911Z,4.65
2023-07-09T08:20:20.476Z,4.85
2023-07-09T08:22:47.488Z,5.13
2023-07-09T08:25:13.966Z,4.68
2023-07-09T08:27:40.421Z,4.43
2023-07-09T08:30:07.677Z,5.00
2023-07-09T08:32:34.239Z,5.03
2023-07-09T08:37:30.135Z,5.15
2023-07-09T08:39:56.697Z,4.20
2023-07-09T08:42:47.166Z,4.55
2023-07-09T08:45:50.606Z,4.72
2023-07-09T08:48:31.603Z,4.57
2023-07-09T08:51:01.679Z,3.77
2023-07-09T08:53:44.887Z,4.78
2023-07-09T08:56:11.725Z,4.40
2023-07-09T08:58:39.818Z,4.32
2023-07-09T09:01:08.020Z,4.50
2023-07-09T09:04:00.081Z,3.83
2023-07-09T09:06:29.043Z,4.50
2023-07-09T09:09:21.946Z,4.30
2023-07-09T09:12:11.933Z,3.95
2023-07-09T09:14:40.747Z,3.97
2023-07-09T09:17:20.994Z,3.85
2023-07-09T09:19:51.844Z,4.10
2023-07-09T09:22:22.919Z,4.00
2023-07-09T09:24:56.526Z,3.83
2023-07-09T09:27:22.971Z,3.92
2023-07-09T09:29:49.403Z,3.90
2023-07-09T09:32:30.462Z,3.65
2023-07-09T09:34:57.021Z,3.47
2023-07-09T09:37:33.154Z,3.75
2023-07-09T09:40:12.197Z,3.85
2023-07-09T09:42:39.970Z,3.95
2023-07-09T09:45:12.354Z,4.07
2023-07-09T09:47:38.800Z,3.80
2023-07-09T09:50:06.086Z,4.18
2023-07-09T09:52:35.469Z,3.88
2023-07-09T09:55:25.286Z,4.28
2023-07-09T09:57:54.019Z,3.80
2023-07-09T10:00:23.981Z,4.20
2023-07-09T10:02:50.565Z,3.88
2023-07-09T10:05:17.760Z,4.13
2023-07-09T10:07:48.914Z,3.90
2023-07-09T10:10:21.566Z,4.25
2023-07-09T10:12:53.211Z,3.78
2023-07-09T10:15:28.452Z,4.00
2023-07-09T10:18:00.293Z,3.90
2023-07-09T10:20:33.633Z,3.90
2023-07-09T10:23:18.888Z,3.97
2023-07-09T10:26:01.073Z,3.90
2023-07-09T10:28:36.441Z,3.80
2023-07-09T10:31:18.550Z,4.05
2023-07-09T10:33:56.911Z,4.07
2023-07-09T10:36:49.838Z,4.18
2023-07-09T10:39:29.263Z,4.50
2023-07-09T10:42:00.626Z,4.50
2023-07-09T10:44:32.244Z,4.15
2023-07-09T10:47:01.957Z,4.20
2023-07-09T10:49:37.588Z,4.10
2023-07-09T10:52:27.151Z,4.38
2023-07-09T10:55:07.092Z,4.55
2023-07-09T10:57:46.024Z,4.00
2023-07-09T11:00:17.250Z,3.97
2023-07-09T11:05:10.152Z,4.20
2023-07-09T11:08:03.458Z,4.00
2023-07-09T11:10:42.979Z,4.00
2023-07-09T11:13:22.822Z,4.40
2023-07-09T11:15:50.239Z,4.00
2023-07-09T11:18:24.354Z,4.35
2023-07-09T11:21:00.782Z,4.10
2023-07-09T11:23:27.841Z,4.05
2023-07-09T11:26:14.105Z,3.92
2023-07-09T11:28:43.094Z,4.25
2023-07-09T11:31:18.854Z,4.20
2023-07-09T11:33:48.822Z,4.45
2023-07-09T11:36:25.465Z,4.05
2023-07-09T11:38:51.887Z,3.85
2023-07-09T11:41:29.942Z,4.43
2023-07-09T11:44:16.944Z,4.30
2023-07-09T11:47:18.402Z,4.25
2023-07-09T11:49:51.058Z,4.55
2023-07-09T11:52:22.598Z,4.40
2023-07-09T11:54:49.012Z,4.28
2023-07-09T11:57:15.474Z,4.80
2023-07-09T11:59:42.962Z,4.90
2023-07-09T12:02:16.717Z,4.82
2023-07-09T12:04:43.138Z,4.60
2023-07-09T12:07:14.329Z,4.43
2023-07-09T12:09:43.171Z,4.05
2023-07-09T12:12:20.135Z,4.63
2023-07-09T12:14:46.600Z,4.53
2023-07-09T12:17:13.019Z,4.57
2023-07-09T12:19:39.906Z,4.38
2023-07-09T12:22:07.842Z,4.57
2023-07-09T12:24:39.321Z,4.70
2023-07-09T12:27:23.040Z,4.70
2023-07-09T12:29:52.122Z,4.15
2023-07-09T12:32:19.476Z,4.65
2023-07-09T12:34:51.581Z,4.18
2023-07-09T12:37:18.019Z,4.85
2023-07-09T12:39:44.448Z,4.88
2023-07-09T12:42:17.524Z,4.57
2023-07-09T12:44:44.080Z,4.60
2023-07-09T12:47:15.421Z,4.10
2023-07-09T12:49:43.944Z,4.25
2023-07-09T12:52:15.103Z,4.38
2023-07-09T12:54:41.542Z,4.32
2023-07-09T12:57:17.830Z,4.40
2023-07-09T12:59:46.519Z,4.63
2023-07-09T13:02:27.104Z,4.30
2023-07-09T13:05:05.980Z,4.45
2023-07-09T13:07:36.042Z,4.72
2023-07-09T13:10:22.572Z,4.60
2023-07-09T13:12:53.621Z,4.32
2023-07-09T13:17:47.283Z,4.45
2023-07-09T13:20:13.809Z,4.90
2023-07-09T13:22:40.338Z,5.03
2023-07-09T13:25:09.433Z,4.80
2023-07-09T13:27:35.904Z,4.80
2023-07-09T13:30:02.343Z,4.90
2023-07-09T13:32:29.149Z,4.68
2023-07-09T13:34:55.571Z,4.30
2023-07-09T13:37:22.003Z,4.80
2023-07-09T13:39:48.624Z,4.70
2023-07-09T13:42:17.689Z,4.68
2023-07-09T13:44:45.975Z,4.60
2023-07-09T13:47:21.829Z,4.78
2023-07-09T13:49:48.533Z,4.72
2023-07-09T13:52:18.564Z,4.78
2023-07-09T13:54:48.498Z,4.72
2023-07-09T13:57:17.177Z,4.15
2023-07-09T13:59:44.157Z,4.60
2023-07-09T14:02:25.081Z,4.53
2023-07-09T14:07:26.643Z,4.30
2023-07-09T14:09:53.099Z,4.63
2023-07-09T14:12:19.528Z,5.15
2023-07-09T14:14:46.814Z,4.93
2023-07-09T14:17:13.549Z,4.72
2023-07-09T14:19:39.982Z,5.20
2023-07-09T14:22:22.426Z,4.90
2023-07-09T14:24:48.900Z,5.20
2023-07-09T14:27:15.319Z,6.40
2023-07-09T14:29:41.756Z,6.57
2023-07-09T14:32:35.294Z,5.05
2023-07-09T14:35:03.426Z,4.85
2023-07-09T14:37:30.034Z,5.10
2023-07-09T14:39:56.650Z,4.68
2023-07-09T14:42:24.012Z,4.75
2023-07-09T14:44:51.260Z,4.70
2023-07-09T14:47:20.387Z,5.18
2023-07-09T14:49:47.334Z,5.13
2023-07-09T14:52:19.082Z,5.43
2023-07-09T14:54:48.800Z,4.90
2023-07-09T14:57:23.090Z,5.32
2023-07-09T14:59:50.318Z,4.93
2023-07-09T15:02:26.390Z,5.35
2023-07-09T15:04:52.848Z,4.60
2023-07-09T15:07:19.359Z,5.03
2023-07-09T15:09:45.790Z,4.65
2023-07-09T15:12:17.487Z,4.85
2023-07-09T15:14:44.023Z,5.18
2023-07-09T15:17:13.964Z,4.90
2023-07-09T15:19:40.839Z,5.55
2023-07-09T15:22:17.524Z,4.82
2023-07-09T15:24:44.303Z,5.22
2023-07-09T15:27:10.712Z,5.35
2023-07-09T15:29:37.124Z,5.05
2023-07-09T15:32:07.765Z,5.68
2023-07-09T15:34:34.391Z,5.43
2023-07-09T15:37:00.857Z,5.55
2023-07-09T15:39:27.354Z,5.07
2023-07-09T15:41:53.818Z,5.32
2023-07-09T15:44:23.451Z,4.88
2023-07-09T15:46:56.948Z,5.18
2023-07-09T15:49:23.875Z,5.30
2023-07-09T15:51:50.319Z,5.63
2023-07-09T15:54:21.710Z,5.63
2023-07-09T15:59:24.213Z,5.55
2023-07-09T16:01:50.705Z,4.93
2023-07-09T16:04:18.247Z,5.35
2023-07-09T16:06:44.855Z,5.20
2023-07-09T16:09:12.738Z,5.15
2023-07-09T16:11:42.142Z,5.72
2023-07-09T16:14:20.609Z,5.63
2023-07-09T16:16:51.735Z,5.22
2023-07-09T16:19:20.554Z,5.28
2023-07-09T16:21:48.313Z,5.45
2023-07-09T16:24:21.952Z,6.53
2023-07-09T16:26:48.964Z,6.65
2023-07-09T16:29:23.299Z,6.60
2023-07-09T16:31:52.870Z,6.57
2023-07-09T16:34:19.354Z,6.60
2023-07-09T16:36:45.780Z,6.50
2023-07-09T16:39:31.107Z,5.85
2023-07-09T16:41:58.680Z,5.45
2023-07-09T16:44:25.575Z,6.07
2023-07-09T16:46:53.448Z,5.68
2023-07-09T16:49:25.784Z,5.80
2023-07-09T16:51:52.220Z,5.75
2023-07-09T16:54:18.720Z,6.30
2023-07-09T16:56:45.267Z,6.22
2023-07-09T16:59:11.707Z,5.95
2023-07-09T17:01:38.479Z,5.80
2023-07-09T17:04:32.879Z,5.80
2023-07-09T17:06:59.319Z,6.18
2023-07-09T17:09:25.768Z,6.20
2023-07-09T17:11:57.217Z,6.25
2023-07-09T17:14:23.901Z,5.90
2023-07-09T17:16:51.876Z,5.70
2023-07-09T17:19:18.694Z,6.10
2023-07-09T17:21:46.800Z,6.13
2023-07-09T17:24:21.833Z,6.82
2023-07-09T17:26:49.651Z,5.38
2023-07-09T17:29:18.045Z,4.90
2023-07-09T17:31:49.483Z,4.22
2023-07-09T17:34:16.701Z,4.25
2023-07-09T17:36:43.258Z,4.20
2023-07-09T17:39:36.758Z,4.30
2023-07-09T17:42:03.255Z,3.83
2023-07-09T17:44:35.114Z,4.20
2023-07-09T17:49:32.052Z,8.63
2023-07-09T17:51:58.817Z,6.68
2023-07-09T17:54:27.482Z,6.68
2023-07-09T17:56:55.706Z,6.03
2023-07-09T17:59:27.077Z,5.05
2023-07-09T18:02:11.157Z,5.32
2023-07-09T18:04:37.709Z,4.03
2023-07-09T18:07:33.735Z,3.90
2023-07-09T18:10:00.188Z,4.35
2023-07-09T18:12:28.456Z,4.32
2023-07-09T18:14:57.557Z,4.20
2023-07-09T18:17:30.798Z,3.88
2023-07-09T18:19:57.907Z,4.50
2023-07-09T18:22:25.473Z,4.40
2023-07-09T18:24:51.944Z,4.30
2023-07-09T18:27:21.410Z,5.45
2023-07-09T18:29:48.925Z,5.43
2023-07-09T18:32:24.236Z,5.28
2023-07-09T18:34:59.538Z,5.65
2023-07-09T18:37:26.118Z,5.75
2023-07-09T18:39:52.905Z,5.82
2023-07-09T18:42:21.502Z,5.53
2023-07-09T18:44:48.239Z,4.95
2023-07-09T18:47:19.713Z,5.40
2023-07-09T18:49:47.048Z,5.03
2023-07-09T18:52:16.179Z,4.60
2023-07-09T18:54:43.007Z,4.50
2023-07-09T18:57:11.447Z,4.70
2023-07-09T18:59:38.787Z,4.65
2023-07-09T19:02:15.535Z,5.00
2023-07-09T19:04:41.973Z,4.90
2023-07-09T19:07:14.545Z,4.80
2023-07-09T19:09:41.182Z,4.90
2023-07-09T19:12:08.156Z,4.50
2023-07-09T19:14:34.637Z,4.80
2023-07-09T19:17:03.581Z,4.43
2023-07-09T19:19:30.218Z,4.32
2023-07-09T19:21:57.977Z,4.10
2023-07-09T19:24:30.336Z,4.38
2023-07-09T19:26:57.524Z,4.15
2023-07-09T19:29:26.062Z,4.05
2023-07-09T19:32:04.996Z,4.13
2023-07-09T19:34:34.179Z,4.75
2023-07-09T19:37:02.720Z,4.30
2023-07-09T19:39:36.442Z,4.25
2023-07-09T19:42:10.521Z,4.35
2023-07-09T19:44:36.948Z,4.25
2023-07-09T19:47:04.254Z,4.20
2023-07-09T19:49:31.045Z,4.18
2023-07-09T19:52:00.705Z,4.43
2023-07-09T19:54:27.241Z,3.75
2023-07-09T19:56:53.899Z,4.90
2023-07-09T19:59:20.472Z,4.97
2023-07-09T20:01:51.781Z,4.78
2023-07-09T20:04:18.297Z,4.37
2023-07-09T20:06:44.788Z,4.25
2023-07-09T20:09:15.309Z,4.47
2023-07-09T20:11:43.076Z,4.53
2023-07-09T20:14:16.649Z,4.75
2023-07-09T20:16:43.273Z,4.38
2023-07-09T20:19:12.494Z,4.53
2023-07-09T20:21:40.465Z,4.30
2023-07-09T20:24:16.722Z,5.07
2023-07-09T20:26:43.383Z,4.97
2023-07-09T20:29:17.819Z,4.80
2023-07-09T20:31:50.996Z,4.85
2023-07-09T20:34:23.419Z,4.20
2023-07-09T20:36:51.358Z,4.72
2023-07-09T20:39:22.541Z,4.88
2023-07-09T20:41:51.640Z,4.25
2023-07-09T20:44:21.932Z,4.80
2023-07-09T20:46:49.007Z,4.35
2023-07-09T20:49:28.387Z,5.00
2023-07-09T20:51:55.538Z,4.85
2023-07-09T20:54:22.057Z,4.25
2023-07-09T20:56:48.601Z,4.20
2023-07-09T20:59:19.329Z,4.22
2023-07-09T21:01:46.224Z,4.55
2023-07-09T21:04:16.975Z,4.90
2023-07-09T21:06:43.812Z,4.10
2023-07-09T21:09:23.730Z,5.50
2023-07-09T21:11:50.259Z,4.95
2023-07-09T21:14:17.411Z,5.15
2023-07-09T21:16:45.620Z,4.82
2023-07-09T21:19:24.464Z,4.78
2023-07-09T21:21:51.160Z,4.50
2023-07-09T21:24:34.780Z,4.75
2023-07-09T21:27:03.922Z,4.70
2023-07-09T21:29:31.093Z,4.55
2023-07-09T21:32:06.645Z,4.57
2023-07-09T21:34:34.853Z,4.40
2023-07-09T21:37:14.132Z,5.18
2023-07-09T21:39:40.741Z,5.07
2023-07-09T21:42:07.264Z,5.22
2023-07-09T21:44:33.687Z,5.20
2023-07-09T21:47:04.474Z,5.07
2023-07-09T21:49:32.777Z,5.95
2023-07-09T21:51:59.201Z,5.00
2023-07-09T21:55:06.293Z,5.45
2023-07-09T21:57:23.226Z,5.78
2023-07-09T21:59:49.661Z,5.20
2023-07-09T22:02:19.418Z,4.97
2023-07-09T22:04:46.525Z,5.20
2023-07-09T22:07:14.415Z,4.88
2023-07-09T22:09:41.157Z,5.10
2023-07-09T22:12:11.749Z,5.07
2023-07-09T22:14:38.415Z,5.00
2023-07-09T22:17:05.711Z,5.30
2023-07-09T22:19:43.631Z,5.30
2023-07-09T22:22:11.967Z,5.18
2023-07-09T22:24:38.498Z,4.90
2023-07-09T22:27:06.388Z,5.40
2023-07-09T22:29:32.835Z,6.00
2023-07-09T22:31:59.304Z,5.63
2023-07-09T22:34:25.768Z,6.55
2023-07-09T22:36:52.215Z,6.05
2023-07-09T22:39:19.119Z,5.95
2023-07-09T22:41:46.711Z,5.78
2023-07-09T22:44:14.080Z,6.25
2023-07-09T22:46:44.319Z,5.65
2023-07-09T22:49:15.749Z,6.07
2023-07-09T22:51:42.249Z,6.27
2023-07-09T22:54:11.603Z,6.72
2023-07-09T22:56:38.172Z,5.93
2023-07-09T22:59:04.624Z,5.28
2023-07-09T23:01:31.790Z,6.10
2023-07-09T23:03:58.462Z,5.97
2023-07-09T23:06:26.966Z,5.85
2023-07-09T23:08:57.083Z,5.88
2023-07-09T23:11:28.743Z,6.43
2023-07-09T23:13:56.002Z,6.05
2023-07-09T23:16:25.889Z,6.63
2023-07-09T23:18:53.466Z,6.18
2023-07-09T23:21:22.593Z,6.20
2023-07-09T23:23:59.856Z,6.15
2023-07-09T23:26:28.279Z,6.25
2023-07-09T23:28:54.715Z,6.22
2023-07-09T23:31:31.493Z,6.15
2023-07-09T23:33:59.017Z,5.90
2023-07-09T23:36:27.446Z,5.75
2023-07-09T23:38:53.901Z,6.35
2023-07-09T23:41:27.469Z,6.35
2023-07-09T23:43:56.210Z,5.78
2023-07-09T23:46:22.760Z,6.40
2023-07-09T23:48:57.072Z,7.05
2023-07-09T23:51:27.019Z,7.45
2023-07-09T23:53:53.504Z,7.85
2023-07-09T23:56:23.525Z,6.75
2023-07-09T23:58:50.447Z,6.75
